Time;durP1;ratioP1;P1;durP2;ratioP2;P2;SDS_P1;SDS_P2;PMS_P1;PMS_P2;Temp;Humidity;BMP_temperature;BMP_pressure;BME280_temperature;BME280_humidity;BME280_pressure;Samples;Min_cycle;Max_cycle;Signal;HPM_P1;HPM_P2
2022/05/07 00:02:00;;;;;;;;;8.67;8.00;;;;;;;;5120994;27;45214;-79
2022/05/07 00:04:25;;;;;;;;;8.67;8.67;;;;;;;;5122301;27;45306;-79
2022/05/07 00:06:51;;;;;;;;;7.00;6.33;;;;;;;;5122028;27;45243;-78
2022/05/07 00:09:17;;;;;;;;;7.33;7.33;;;;;;;;5121738;27;46190;-78
2022/05/07 00:11:42;;;;;;;;;8.00;8.00;;;;;;;;5120682;27;45795;-78
2022/05/07 00:14:07;;;;;;;;;9.33;7.33;;;;;;;;5121659;27;45806;-78
2022/05/07 00:19:17;;;;;;;;;11.67;10.00;;;;;;;;5100965;27;45330;-79
2022/05/07 00:21:42;;;;;;;;;8.00;8.00;;;;;;;;5100895;27;45339;-78
2022/05/07 00:24:07;;;;;;;;;11.00;10.33;;;;;;;;5101293;27;45331;-79
2022/05/07 00:26:33;;;;;;;;;10.33;10.00;;;;;;;;5100702;27;45404;-79
2022/05/07 00:28:58;;;;;;;;;12.33;9.67;;;;;;;;5101165;27;45424;-78
2022/05/07 00:31:23;;;;;;;;;10.00;10.00;;;;;;;;5100676;27;45259;-78
2022/05/07 00:33:48;;;;;;;;;12.00;10.67;;;;;;;;5099684;27;45320;-78
2022/05/07 00:36:13;;;;;;;;;11.00;11.00;;;;;;;;5100765;27;45353;-79
2022/05/07 00:38:38;;;;;;;;;12.00;11.67;;;;;;;;5099414;27;47522;-78
2022/05/07 00:41:04;;;;;;;;;9.00;9.00;;;;;;;;5099207;27;45937;-78
2022/05/07 00:43:36;;;;;;;;;13.67;13.33;;;;;;;;5101029;27;45367;-79
2022/05/07 00:46:01;;;;;;;;;11.67;11.67;;;;;;;;5100776;27;45435;-79
2022/05/07 00:48:27;;;;;;;;;15.33;15.33;;;;;;;;5100555;27;45345;-79
2022/05/07 00:53:37;;;;;;;;;9.67;9.67;;;;;;;;5100432;27;45471;-79
2022/05/07 00:56:02;;;;;;;;;15.33;12.67;;;;;;;;5098936;27;46375;-78
2022/05/07 00:58:28;;;;;;;;;13.00;13.00;;;;;;;;5100352;27;45318;-78
2022/05/07 01:00:53;;;;;;;;;11.33;11.33;;;;;;;;5099220;27;45283;-79
2022/05/07 01:03:19;;;;;;;;;14.67;13.00;;;;;;;;5100702;27;45459;-78
2022/05/07 01:05:44;;;;;;;;;16.67;16.33;;;;;;;;5100171;27;45341;-78
2022/05/07 01:08:10;;;;;;;;;14.67;13.00;;;;;;;;5100305;27;46396;-79
2022/05/07 01:10:36;;;;;;;;;14.00;12.00;;;;;;;;5100099;27;45448;-78
2022/05/07 01:13:01;;;;;;;;;12.67;11.67;;;;;;;;5100325;27;45406;-78
2022/05/07 01:15:26;;;;;;;;;13.00;12.00;;;;;;;;5106526;27;45805;-78
2022/05/07 01:17:51;;;;;;;;;12.67;11.67;;;;;;;;5119447;27;47746;-78
2022/05/07 01:20:17;;;;;;;;;13.00;13.00;;;;;;;;5121050;27;45300;-79
2022/05/07 01:22:43;;;;;;;;;16.00;15.33;;;;;;;;5120833;27;45319;-79
2022/05/07 01:25:08;;;;;;;;;17.33;17.33;;;;;;;;5120282;27;45495;-79
2022/05/07 01:27:33;;;;;;;;;18.00;14.67;;;;;;;;5120780;27;45216;-78
2022/05/07 01:29:58;;;;;;;;;17.67;16.00;;;;;;;;5120713;27;45271;-79
2022/05/07 01:32:24;;;;;;;;;15.00;14.00;;;;;;;;5119100;27;45328;-79
2022/05/07 01:34:53;;;;;;;;;13.00;13.00;;;;;;;;5119383;27;45429;-78
2022/05/07 01:37:18;;;;;;;;;14.00;14.00;;;;;;;;5120338;27;45459;-79
2022/05/07 01:39:43;;;;;;;;;14.00;14.00;;;;;;;;5119004;27;45320;-78
2022/05/07 01:42:09;;;;;;;;;14.33;14.00;;;;;;;;5120740;27;45387;-79
2022/05/07 01:44:34;;;;;;;;;13.00;11.33;;;;;;;;5119223;27;46066;-79
2022/05/07 01:49:43;;;;;;;;;16.00;13.00;;;;;;;;5120376;27;45733;-78
2022/05/07 01:52:09;;;;;;;;;13.00;13.00;;;;;;;;5120465;27;45580;-78
2022/05/07 01:54:34;;;;;;;;;15.67;14.00;;;;;;;;5118542;27;46182;-78
2022/05/07 01:56:59;;;;;;;;;12.67;12.67;;;;;;;;5120455;27;45402;-78
2022/05/07 01:59:25;;;;;;;;;16.00;16.00;;;;;;;;5120454;27;45434;-78
2022/05/07 02:01:50;;;;;;;;;13.33;13.00;;;;;;;;5120518;27;45387;-78
2022/05/07 02:04:15;;;;;;;;;10.67;10.67;;;;;;;;5120292;27;45463;-78
2022/05/07 02:06:40;;;;;;;;;12.00;11.33;;;;;;;;5120061;27;46518;-78
2022/05/07 02:09:05;;;;;;;;;13.33;13.33;;;;;;;;5120365;27;45313;-78
2022/05/07 02:11:30;;;;;;;;;12.00;11.33;;;;;;;;5120094;27;45304;-78
2022/05/07 02:13:56;;;;;;;;;12.33;12.33;;;;;;;;5120216;27;45305;-78
2022/05/07 02:16:21;;;;;;;;;11.67;11.00;;;;;;;;5104416;27;46136;-78
2022/05/07 02:18:46;;;;;;;;;12.33;10.33;;;;;;;;5098189;27;45344;-78
2022/05/07 02:21:11;;;;;;;;;11.67;11.00;;;;;;;;5098326;27;45350;-78
2022/05/07 02:23:37;;;;;;;;;13.67;12.67;;;;;;;;5099253;27;45306;-78
2022/05/07 02:26:02;;;;;;;;;13.67;13.67;;;;;;;;5097731;27;47423;-78
2022/05/07 02:28:27;;;;;;;;;12.00;12.00;;;;;;;;5099270;27;45381;-78
2022/05/07 02:30:52;;;;;;;;;14.00;14.00;;;;;;;;5099514;27;45399;-78
2022/05/07 02:33:18;;;;;;;;;12.00;12.00;;;;;;;;5098966;27;45610;-79
2022/05/07 02:35:43;;;;;;;;;10.33;10.33;;;;;;;;5100304;27;45285;-78
2022/05/07 02:38:09;;;;;;;;;14.67;14.67;;;;;;;;5102833;27;45325;-78
2022/05/07 02:42:33;;;;;;;;;16.00;13.33;;;;;;;;5102792;27;45317;-78
2022/05/07 02:43:19;;;;;;;;;12.00;12.00;;;;;;;;5102540;27;45428;-79
2022/05/07 02:45:44;;;;;;;;;16.00;15.00;;;;;;;;5102628;27;46150;-78
2022/05/07 02:48:09;;;;;;;;;15.33;14.67;;;;;;;;5102700;27;45238;-79
2022/05/07 02:50:34;;;;;;;;;12.33;11.33;;;;;;;;5101436;27;45333;-78
2022/05/07 02:53:00;;;;;;;;;12.00;12.00;;;;;;;;5102517;27;45275;-77
2022/05/07 02:55:25;;;;;;;;;13.00;13.00;;;;;;;;5100826;27;48230;-78
2022/05/07 02:57:51;;;;;;;;;12.00;11.00;;;;;;;;5102736;27;45276;-78
2022/05/07 03:00:16;;;;;;;;;14.33;14.33;;;;;;;;5101805;27;45389;-78
2022/05/07 03:02:42;;;;;;;;;14.00;12.67;;;;;;;;5102679;27;45349;-78
2022/05/07 03:05:07;;;;;;;;;13.67;13.67;;;;;;;;5102329;27;45468;-78
2022/05/07 03:07:33;;;;;;;;;12.67;12.67;;;;;;;;5102675;27;45356;-78
2022/05/07 03:09:58;;;;;;;;;12.67;12.67;;;;;;;;5102779;27;45447;-78
2022/05/07 03:12:23;;;;;;;;;11.67;11.67;;;;;;;;5102606;27;45325;-78
2022/05/07 03:14:48;;;;;;;;;11.33;11.33;;;;;;;;5103542;27;47240;-78
2022/05/07 03:17:13;;;;;;;;;12.33;12.33;;;;;;;;5123260;27;45315;-78
2022/05/07 03:19:39;;;;;;;;;12.00;11.33;;;;;;;;5122186;27;45289;-78
2022/05/07 03:22:04;;;;;;;;;15.00;14.00;;;;;;;;5123198;27;45535;-78
2022/05/07 03:24:29;;;;;;;;;14.00;12.33;;;;;;;;5122847;27;45388;-78
2022/05/07 03:26:54;;;;;;;;;16.33;15.00;;;;;;;;5122903;27;45356;-78
2022/05/07 03:29:19;;;;;;;;;15.67;14.00;;;;;;;;5095068;27;45325;-78
2022/05/07 03:31:48;;;;;;;;;14.67;13.67;;;;;;;;5081552;28;45315;-78
2022/05/07 03:34:14;;;;;;;;;14.33;13.33;;;;;;;;5081560;27;46019;-78
2022/05/07 03:36:39;;;;;;;;;12.00;11.67;;;;;;;;5081242;28;45178;-78
2022/05/07 03:39:04;;;;;;;;;13.33;12.67;;;;;;;;5081988;27;45305;-79
2022/05/07 03:41:30;;;;;;;;;14.67;14.67;;;;;;;;5081459;28;45275;-78
2022/05/07 03:43:55;;;;;;;;;18.33;14.33;;;;;;;;5081576;27;46051;-78
2022/05/07 03:46:21;;;;;;;;;13.00;12.33;;;;;;;;5080113;28;45278;-78
2022/05/07 03:48:46;;;;;;;;;12.67;12.67;;;;;;;;5080394;28;45347;-78
2022/05/07 03:51:12;;;;;;;;;15.33;15.33;;;;;;;;5081325;27;45358;-78
2022/05/07 03:53:37;;;;;;;;;13.67;12.33;;;;;;;;5081196;28;46182;-78
2022/05/07 03:56:06;;;;;;;;;15.33;14.00;;;;;;;;5081280;28;45334;-77
2022/05/07 03:58:32;;;;;;;;;16.00;16.00;;;;;;;;5080199;28;45250;-78
2022/05/07 04:00:57;;;;;;;;;13.33;13.33;;;;;;;;5079666;28;47367;-78
2022/05/07 04:03:23;;;;;;;;;13.33;13.33;;;;;;;;5081272;27;45289;-78
2022/05/07 04:05:49;;;;;;;;;12.00;11.00;;;;;;;;5081362;28;45513;-78
2022/05/07 04:08:15;;;;;;;;;14.33;14.33;;;;;;;;5081388;28;45219;-78
2022/05/07 04:10:42;;;;;;;;;12.67;12.67;;;;;;;;5080985;28;45254;-78
2022/05/07 04:13:07;;;;;;;;;17.00;16.33;;;;;;;;5080972;27;46065;-78
2022/05/07 04:15:33;;;;;;;;;17.00;16.00;;;;;;;;5097856;27;45271;-78
2022/05/07 04:17:58;;;;;;;;;19.67;18.67;;;;;;;;5122257;27;45363;-78
2022/05/07 04:20:23;;;;;;;;;18.67;18.67;;;;;;;;5122097;27;45628;-78
2022/05/07 04:22:48;;;;;;;;;16.33;16.00;;;;;;;;5120503;27;48449;-78
2022/05/07 04:25:14;;;;;;;;;15.67;15.33;;;;;;;;5120488;27;45374;-78
2022/05/07 04:27:39;;;;;;;;;13.67;13.67;;;;;;;;5122289;27;45464;-78
2022/05/07 04:30:05;;;;;;;;;17.00;17.00;;;;;;;;5120491;27;46462;-78
2022/05/07 04:32:30;;;;;;;;;16.67;16.67;;;;;;;;5121505;27;45489;-77
2022/05/07 04:34:56;;;;;;;;;15.00;14.67;;;;;;;;5120545;27;45258;-78
2022/05/07 04:37:21;;;;;;;;;19.67;18.00;;;;;;;;5121713;27;45372;-78
2022/05/07 04:39:47;;;;;;;;;21.00;18.67;;;;;;;;5121476;27;45360;-77
2022/05/07 04:42:12;;;;;;;;;15.67;13.67;;;;;;;;5120169;27;47552;-78
2022/05/07 04:44:37;;;;;;;;;17.67;16.67;;;;;;;;5120344;27;45234;-78
2022/05/07 04:47:04;;;;;;;;;17.33;16.33;;;;;;;;5121745;27;45613;-78
2022/05/07 04:49:29;;;;;;;;;18.00;18.00;;;;;;;;5121611;27;45293;-77
2022/05/07 04:51:55;;;;;;;;;17.33;15.00;;;;;;;;5121331;27;46180;-78
2022/05/07 04:54:20;;;;;;;;;18.33;17.33;;;;;;;;5121337;27;45205;-77
2022/05/07 04:56:49;;;;;;;;;18.67;18.67;;;;;;;;5121680;27;45568;-78
2022/05/07 04:59:15;;;;;;;;;17.33;16.67;;;;;;;;5119258;27;46743;-78
2022/05/07 05:01:41;;;;;;;;;17.00;16.67;;;;;;;;5121202;27;46028;-77
2022/05/07 05:04:06;;;;;;;;;18.33;17.00;;;;;;;;5119980;27;45672;-77
2022/05/07 05:06:31;;;;;;;;;17.33;15.33;;;;;;;;5121678;27;45344;-78
2022/05/07 05:08:56;;;;;;;;;21.00;19.67;;;;;;;;5120119;27;46105;-78
2022/05/07 05:11:21;;;;;;;;;18.33;17.33;;;;;;;;5121356;27;45400;-79
2022/05/07 05:13:47;;;;;;;;;18.00;15.67;;;;;;;;5080035;27;45255;-79
2022/05/07 05:16:12;;;;;;;;;22.00;21.00;;;;;;;;5107525;27;45439;-80
2022/05/07 05:18:37;;;;;;;;;15.67;15.33;;;;;;;;5121803;27;45202;-79
2022/05/07 05:21:02;;;;;;;;;17.00;17.00;;;;;;;;5122156;27;45241;-80
2022/05/07 05:23:28;;;;;;;;;19.00;17.67;;;;;;;;5121142;27;45278;-80
2022/05/07 05:25:53;;;;;;;;;15.00;15.00;;;;;;;;5121684;27;45324;-79
2022/05/07 05:28:18;;;;;;;;;13.67;13.00;;;;;;;;5121923;27;45220;-80
2022/05/07 05:30:44;;;;;;;;;17.00;16.00;;;;;;;;5127472;27;45280;-79
2022/05/07 05:33:09;;;;;;;;;17.00;15.67;;;;;;;;5119390;27;45340;-79
2022/05/07 05:35:34;;;;;;;;;16.33;16.33;;;;;;;;5093133;27;45165;-78
2022/05/07 05:37:59;;;;;;;;;17.00;17.00;;;;;;;;5088428;27;45945;-79
2022/05/07 05:40:25;;;;;;;;;17.00;16.00;;;;;;;;5088050;27;45402;-79
2022/05/07 05:42:50;;;;;;;;;19.00;18.00;;;;;;;;5100562;27;45345;-77
2022/05/07 05:45:17;;;;;;;;;19.00;19.00;;;;;;;;5091246;27;45289;-77
2022/05/07 05:47:42;;;;;;;;;21.00;19.33;;;;;;;;5080383;27;45433;-81
2022/05/07 05:50:07;;;;;;;;;20.67;20.00;;;;;;;;5082584;27;45393;-80
2022/05/07 05:52:33;;;;;;;;;18.67;18.67;;;;;;;;5082065;27;45505;-78
2022/05/07 05:54:58;;;;;;;;;21.00;18.33;;;;;;;;5079985;27;45334;-79
2022/05/07 05:57:23;;;;;;;;;16.67;15.00;;;;;;;;5081122;28;45362;-84
2022/05/07 05:59:48;;;;;;;;;18.00;18.00;;;;;;;;5081541;27;45411;-80
2022/05/07 06:02:17;;;;;;;;;19.00;17.33;;;;;;;;5078179;28;46254;-80
2022/05/07 06:04:42;;;;;;;;;20.00;19.67;;;;;;;;5079131;28;45449;-80
2022/05/07 06:07:08;;;;;;;;;23.33;22.33;;;;;;;;5078919;27;46287;-77
2022/05/07 06:09:33;;;;;;;;;23.33;20.67;;;;;;;;5079709;27;45974;-79
2022/05/07 06:11:59;;;;;;;;;17.33;17.00;;;;;;;;5084348;27;45461;-78
2022/05/07 06:14:25;;;;;;;;;17.67;16.00;;;;;;;;5085646;27;45452;-77
2022/05/07 06:16:50;;;;;;;;;20.00;19.00;;;;;;;;5084311;27;45916;-79
2022/05/07 06:19:16;;;;;;;;;19.33;18.00;;;;;;;;5086533;27;46178;-78
2022/05/07 06:21:41;;;;;;;;;20.00;19.00;;;;;;;;5092951;27;45458;-79
2022/05/07 06:29:34;;;;;;;;;23.33;21.67;;;;;;;;5088398;27;45694;-78
2022/05/07 06:31:59;;;;;;;;;17.67;17.33;;;;;;;;5091390;27;45540;-79
2022/05/07 06:34:24;;;;;;;;;18.00;18.00;;;;;;;;5094812;27;45493;-78
2022/05/07 06:36:49;;;;;;;;;23.33;20.67;;;;;;;;5092884;27;46637;-79
2022/05/07 06:39:20;;;;;;;;;20.00;19.67;;;;;;;;5092739;27;46998;-78
2022/05/07 06:41:45;;;;;;;;;21.00;20.33;;;;;;;;5084322;27;45337;-78
2022/05/07 06:44:10;;;;;;;;;24.50;21.50;;;;;;;;5082839;27;45476;-78
2022/05/07 06:46:36;;;;;;;;;21.33;19.00;;;;;;;;5081767;28;46220;-77
2022/05/07 06:49:01;;;;;;;;;22.33;20.00;;;;;;;;5081878;28;47184;-78
2022/05/07 06:51:26;;;;;;;;;24.00;20.00;;;;;;;;5084290;27;45275;-77
2022/05/07 06:53:51;;;;;;;;;17.67;17.33;;;;;;;;5094128;27;45552;-76
2022/05/07 06:56:17;;;;;;;;;21.00;19.33;;;;;;;;5101942;27;45480;-77
2022/05/07 06:58:42;;;;;;;;;24.33;22.33;;;;;;;;5093908;27;45470;-77
2022/05/07 07:01:07;;;;;;;;;21.00;19.67;;;;;;;;5087579;27;45412;-76
2022/05/07 07:03:33;;;;;;;;;22.00;20.67;;;;;;;;5085608;27;45475;-75
2022/05/07 07:05:59;;;;;;;;;21.00;21.00;;;;;;;;5086249;27;45468;-75
2022/05/07 07:08:25;;;;;;;;;27.00;24.67;;;;;;;;5087954;27;46154;-76
2022/05/07 07:10:50;;;;;;;;;29.00;25.67;;;;;;;;5088688;27;45388;-76
2022/05/07 07:13:18;;;;;;;;;24.00;23.33;;;;;;;;5099042;27;45322;-77
2022/05/07 07:15:44;;;;;;;;;21.00;19.33;;;;;;;;5112008;27;46230;-79
2022/05/07 07:18:10;;;;;;;;;21.67;21.67;;;;;;;;5109323;27;47325;-77
2022/05/07 07:20:39;;;;;;;;;24.67;23.00;;;;;;;;5103897;27;45378;-78
2022/05/07 07:23:04;;;;;;;;;30.33;28.00;;;;;;;;5105702;27;45244;-76
2022/05/07 07:25:30;;;;;;;;;28.33;26.00;;;;;;;;5083774;27;46245;-78
2022/05/07 07:27:55;;;;;;;;;25.00;24.33;;;;;;;;5103350;27;48462;-77
2022/05/07 07:30:20;;;;;;;;;26.33;25.00;;;;;;;;5094678;27;45381;-77
2022/05/07 07:32:45;;;;;;;;;31.33;27.67;;;;;;;;5081725;27;45322;-78
2022/05/07 07:35:11;;;;;;;;;25.33;24.00;;;;;;;;5084835;27;45390;-78
2022/05/07 07:37:36;;;;;;;;;23.67;20.67;;;;;;;;5093694;27;47247;-79
2022/05/07 07:40:02;;;;;;;;;30.67;28.67;;;;;;;;5099561;27;45183;-78
2022/05/07 07:42:27;;;;;;;;;33.67;30.00;;;;;;;;5100782;27;45334;-78
2022/05/07 07:47:56;;;;;;;;;29.33;28.00;;;;;;;;5102608;27;45485;-77
2022/05/07 07:50:32;;;;;;;;;32.00;30.00;;;;;;;;5101635;27;45322;-78
2022/05/07 07:53:02;;;;;;;;;33.00;30.67;;;;;;;;5095661;27;45583;-78
2022/05/07 07:55:27;;;;;;;;;31.67;29.33;;;;;;;;5081350;27;45477;-79
2022/05/07 07:57:56;;;;;;;;;27.00;26.67;;;;;;;;5081530;27;45274;-76
2022/05/07 08:00:22;;;;;;;;;29.67;25.67;;;;;;;;5083442;27;45355;-78
2022/05/07 08:02:52;;;;;;;;;28.00;27.00;;;;;;;;5084500;27;45456;-77
2022/05/07 08:05:20;;;;;;;;;27.67;25.67;;;;;;;;5083995;27;45512;-80
2022/05/07 08:13:14;;;;;;;;;25.00;23.67;;;;;;;;5086402;27;45561;-78
2022/05/07 08:15:40;;;;;;;;;26.67;24.67;;;;;;;;5089350;27;45652;-79
2022/05/07 08:18:05;;;;;;;;;24.67;22.67;;;;;;;;5089911;27;45203;-78
2022/05/07 08:20:30;;;;;;;;;31.33;28.00;;;;;;;;5088070;27;45407;-76
2022/05/07 08:22:55;;;;;;;;;24.33;24.33;;;;;;;;5086615;27;45350;-79
2022/05/07 08:25:21;;;;;;;;;27.67;26.67;;;;;;;;5081345;27;46395;-77
2022/05/07 08:27:46;;;;;;;;;33.33;27.67;;;;;;;;5082714;27;46522;-76
2022/05/07 08:30:12;;;;;;;;;25.00;23.67;;;;;;;;5081816;27;45493;-77
2022/05/07 08:32:37;;;;;;;;;28.00;26.00;;;;;;;;5087177;27;45831;-75
2022/05/07 08:35:02;;;;;;;;;25.33;23.67;;;;;;;;5083943;27;46063;-77
2022/05/07 08:37:27;;;;;;;;;24.67;22.67;;;;;;;;5080966;27;47670;-76
2022/05/07 08:39:53;;;;;;;;;21.33;21.00;;;;;;;;5080074;27;45456;-76
2022/05/07 08:42:18;;;;;;;;;28.33;26.00;;;;;;;;5082413;27;45470;-77
2022/05/07 08:44:43;;;;;;;;;26.67;25.00;;;;;;;;5080899;27;45474;-77
2022/05/07 08:47:09;;;;;;;;;23.67;22.67;;;;;;;;5081918;28;45389;-76
2022/05/07 08:49:34;;;;;;;;;27.00;25.67;;;;;;;;5082529;27;45432;-76
2022/05/07 08:52:02;;;;;;;;;26.33;25.00;;;;;;;;5081641;27;45584;-77
2022/05/07 08:54:28;;;;;;;;;26.33;23.67;;;;;;;;5079332;28;46547;-76
2022/05/07 08:56:53;;;;;;;;;25.33;24.33;;;;;;;;5082626;27;45176;-77
2022/05/07 08:59:18;;;;;;;;;31.33;26.00;;;;;;;;5084493;27;45210;-76
2022/05/07 09:01:44;;;;;;;;;25.00;23.67;;;;;;;;5081915;27;45246;-77
2022/05/07 09:04:10;;;;;;;;;24.67;22.67;;;;;;;;5082336;27;45396;-75
2022/05/07 09:06:35;;;;;;;;;39.25;32.00;;;;;;;;5081054;28;47454;-76
2022/05/07 09:09:03;;;;;;;;;27.00;25.33;;;;;;;;5080336;27;45256;-76
2022/05/07 09:11:37;;;;;;;;;25.00;24.00;;;;;;;;5080691;28;45354;-76
2022/05/07 09:14:04;;;;;;;;;22.67;22.67;;;;;;;;5080768;27;45390;-76
2022/05/07 09:16:45;;;;;;;;;21.67;20.67;;;;;;;;5114348;27;47172;-76
2022/05/07 09:19:20;;;;;;;;;32.33;28.33;;;;;;;;5121954;27;45221;-76
2022/05/07 09:21:47;;;;;;;;;24.00;24.00;;;;;;;;5120413;27;45270;-76
2022/05/07 09:24:12;;;;;;;;;28.67;23.00;;;;;;;;5123475;27;45442;-76
2022/05/07 09:26:40;;;;;;;;;28.00;24.00;;;;;;;;5120815;27;47175;-77
2022/05/07 09:29:10;;;;;;;;;29.33;25.67;;;;;;;;5122844;27;45252;-77
2022/05/07 09:31:36;;;;;;;;;22.33;22.00;;;;;;;;5121860;27;45241;-76
2022/05/07 09:36:56;;;;;;;;;18.67;17.67;;;;;;;;5086635;27;45406;-77
2022/05/07 09:39:21;;;;;;;;;28.67;23.00;;;;;;;;5099266;27;45287;-77
2022/05/07 09:41:52;;;;;;;;;24.33;22.33;;;;;;;;5098601;27;45263;-77
2022/05/07 09:44:19;;;;;;;;;23.00;20.33;;;;;;;;5097409;27;45532;-77
2022/05/07 09:46:44;;;;;;;;;23.67;21.33;;;;;;;;5076288;27;47288;-76
2022/05/07 09:49:10;;;;;;;;;22.00;22.00;;;;;;;;5077753;27;45336;-76
2022/05/07 09:51:35;;;;;;;;;29.33;27.00;;;;;;;;5079562;27;45269;-77
2022/05/07 09:59:31;;;;;;;;;29.67;26.33;;;;;;;;5080372;27;45343;-76
2022/05/07 10:02:04;;;;;;;;;24.67;24.67;;;;;;;;5077708;27;45357;-78
2022/05/07 10:04:29;;;;;;;;;20.00;20.00;;;;;;;;5077831;27;45363;-77
2022/05/07 10:07:04;;;;;;;;;20.67;18.00;;;;;;;;5078691;27;45548;-78
2022/05/07 10:09:47;;;;;;;;;59.00;43.00;;;;;;;;5079378;27;45270;-77
2022/05/07 10:12:17;;;;;;;;;21.67;20.67;;;;;;;;5079433;27;45401;-79
2022/05/07 10:14:42;;;;;;;;;24.67;21.33;;;;;;;;5081629;27;45489;-78
2022/05/07 10:17:11;;;;;;;;;25.67;25.67;;;;;;;;5120195;27;45334;-77
2022/05/07 10:19:43;;;;;;;;;28.00;26.33;;;;;;;;5105643;27;46154;-78
2022/05/07 10:22:16;;;;;;;;;32.67;26.00;;;;;;;;5093008;27;45286;-78
2022/05/07 10:24:41;;;;;;;;;24.33;24.00;;;;;;;;5077631;28;46650;-76
2022/05/07 10:27:17;;;;;;;;;22.50;22.50;;;;;;;;5082938;27;45652;-76
2022/05/07 10:29:42;;;;;;;;;30.00;29.00;;;;;;;;5099553;27;45263;-77
2022/05/07 10:32:07;;;;;;;;;25.00;24.67;;;;;;;;5099616;27;45499;-76
2022/05/07 10:34:32;;;;;;;;;19.67;19.33;;;;;;;;5099389;27;45611;-78
2022/05/07 10:37:01;;;;;;;;;24.33;23.00;;;;;;;;5099169;27;45678;-78
2022/05/07 10:39:26;;;;;;;;;25.67;23.00;;;;;;;;5099413;27;45369;-77
2022/05/07 10:41:51;;;;;;;;;22.00;21.67;;;;;;;;5099563;27;45324;-77
2022/05/07 10:44:28;;;;;;;;;22.00;21.33;;;;;;;;5098045;27;47142;-77
2022/05/07 10:46:53;;;;;;;;;21.33;21.33;;;;;;;;5097853;27;47320;-77
2022/05/07 10:49:19;;;;;;;;;22.67;22.00;;;;;;;;5087697;27;45433;-77
2022/05/07 10:51:51;;;;;;;;;24.00;23.00;;;;;;;;5078858;27;45314;-77
2022/05/07 10:54:21;;;;;;;;;22.00;22.00;;;;;;;;5078549;27;45300;-75
2022/05/07 10:56:51;;;;;;;;;21.00;20.00;;;;;;;;5079947;27;45488;-78
2022/05/07 10:59:18;;;;;;;;;22.67;21.67;;;;;;;;5081817;27;45295;-78
2022/05/07 11:01:43;;;;;;;;;23.00;19.00;;;;;;;;5083693;27;45319;-78
2022/05/07 11:04:12;;;;;;;;;20.00;19.00;;;;;;;;5082551;27;45255;-76
2022/05/07 11:06:40;;;;;;;;;24.33;24.00;;;;;;;;5084175;27;46099;-78
2022/05/07 11:09:05;;;;;;;;;21.00;20.67;;;;;;;;5093902;27;45349;-78
2022/05/07 11:11:31;;;;;;;;;19.67;19.67;;;;;;;;5097499;27;45397;-77
2022/05/07 11:13:56;;;;;;;;;28.33;25.67;;;;;;;;5092177;27;45255;-77
2022/05/07 11:16:23;;;;;;;;;21.67;21.00;;;;;;;;5083827;27;46909;-77
2022/05/07 11:18:52;;;;;;;;;31.33;29.33;;;;;;;;5080645;27;45459;-76
2022/05/07 11:21:18;;;;;;;;;38.33;32.67;;;;;;;;5082500;27;45375;-77
2022/05/07 11:23:44;;;;;;;;;26.00;23.67;;;;;;;;5080974;27;46180;-77
2022/05/07 11:26:14;;;;;;;;;20.00;18.00;;;;;;;;5080895;27;47133;-80
2022/05/07 11:28:40;;;;;;;;;18.00;15.33;;;;;;;;5089800;27;45644;-79
2022/05/07 11:31:05;;;;;;;;;21.33;20.00;;;;;;;;5101996;27;45444;-80
2022/05/07 11:33:30;;;;;;;;;19.67;18.67;;;;;;;;5093439;27;45449;-80
2022/05/07 11:36:05;;;;;;;;;19.00;19.00;;;;;;;;5080651;27;46012;-78
2022/05/07 11:38:30;;;;;;;;;19.33;19.33;;;;;;;;5083513;27;45556;-76
2022/05/07 11:40:55;;;;;;;;;18.33;18.33;;;;;;;;5083445;27;45234;-78
2022/05/07 11:46:07;;;;;;;;;19.00;17.67;;;;;;;;5098591;27;45842;-79
2022/05/07 11:48:33;;;;;;;;;19.00;18.00;;;;;;;;5100148;27;45414;-80
2022/05/07 11:51:01;;;;;;;;;23.33;20.67;;;;;;;;5089647;27;45433;-78
2022/05/07 11:53:30;;;;;;;;;18.67;18.00;;;;;;;;5091635;27;45382;-78
2022/05/07 11:56:05;;;;;;;;;15.67;13.67;;;;;;;;5078950;28;47227;-79
2022/05/07 11:58:38;;;;;;;;;15.67;15.67;;;;;;;;5080569;27;45365;-79
2022/05/07 12:01:03;;;;;;;;;14.00;14.00;;;;;;;;5097218;27;45390;-78
2022/05/07 12:03:28;;;;;;;;;18.33;17.33;;;;;;;;5085631;27;46069;-78
2022/05/07 12:05:54;;;;;;;;;17.00;16.67;;;;;;;;5079937;27;46898;-76
2022/05/07 12:08:32;;;;;;;;;16.33;16.33;;;;;;;;5080412;27;46055;-78
2022/05/07 12:10:58;;;;;;;;;17.00;17.00;;;;;;;;5080372;27;45487;-78
2022/05/07 12:13:24;;;;;;;;;16.33;15.67;;;;;;;;5079750;27;45361;-79
2022/05/07 12:18:34;;;;;;;;;18.33;17.67;;;;;;;;5089446;27;45318;-75
2022/05/07 12:20:59;;;;;;;;;20.33;19.00;;;;;;;;5085057;27;45447;-79
2022/05/07 12:31:49;;;;;;;;;18.00;18.00;;;;;;;;5096413;27;45396;-76
2022/05/07 12:34:14;;;;;;;;;19.00;17.33;;;;;;;;5105672;27;45689;-76
2022/05/07 12:36:39;;;;;;;;;20.33;17.67;;;;;;;;5107661;27;46337;-75
2022/05/07 12:39:05;;;;;;;;;20.00;20.00;;;;;;;;5104050;27;45271;-77
2022/05/07 12:41:30;;;;;;;;;20.67;18.67;;;;;;;;5102048;27;45487;-79
2022/05/07 12:43:57;;;;;;;;;23.00;19.00;;;;;;;;5105376;27;45453;-77
2022/05/07 12:46:24;;;;;;;;;22.00;21.00;;;;;;;;5103332;27;45396;-77
2022/05/07 12:48:49;;;;;;;;;23.00;21.00;;;;;;;;5105095;27;45352;-76
2022/05/07 12:51:14;;;;;;;;;22.00;20.00;;;;;;;;5091101;27;45894;-77
2022/05/07 12:53:39;;;;;;;;;24.33;22.67;;;;;;;;5083929;28;45334;-77
2022/05/07 12:56:05;;;;;;;;;27.33;24.00;;;;;;;;5085956;27;45308;-76
2022/05/07 12:58:30;;;;;;;;;21.33;20.67;;;;;;;;5083807;27;45778;-75
2022/05/07 13:00:55;;;;;;;;;22.67;21.67;;;;;;;;5085490;27;45424;-75
2022/05/07 13:03:20;;;;;;;;;19.67;19.67;;;;;;;;5097830;27;45478;-78
2022/05/07 13:05:46;;;;;;;;;18.33;18.33;;;;;;;;5100528;27;45355;-77
2022/05/07 13:08:11;;;;;;;;;22.00;21.00;;;;;;;;5094853;27;45383;-79
2022/05/07 13:10:37;;;;;;;;;19.33;19.33;;;;;;;;5083992;27;45379;-78
2022/05/07 13:13:02;;;;;;;;;22.67;19.33;;;;;;;;5081527;27;45449;-77
2022/05/07 13:15:31;;;;;;;;;27.33;26.67;;;;;;;;5084911;27;45950;-78
2022/05/07 13:17:57;;;;;;;;;17.00;16.67;;;;;;;;5087764;27;45527;-77
2022/05/07 13:20:22;;;;;;;;;22.33;22.33;;;;;;;;5091718;27;45285;-77
2022/05/07 13:22:48;;;;;;;;;18.67;18.67;;;;;;;;5079282;28;45924;-77
2022/05/07 13:25:14;;;;;;;;;22.33;21.67;;;;;;;;5078832;28;48475;-79
2022/05/07 13:27:39;;;;;;;;;20.67;20.67;;;;;;;;5082575;28;45216;-77
2022/05/07 13:30:05;;;;;;;;;29.00;27.00;;;;;;;;5081118;28;45267;-76
2022/05/07 13:32:30;;;;;;;;;25.33;25.33;;;;;;;;5091196;27;45615;-77
2022/05/07 13:34:55;;;;;;;;;31.67;28.67;;;;;;;;5087963;27;45718;-77
2022/05/07 13:37:20;;;;;;;;;24.33;21.67;;;;;;;;5086525;27;45336;-78
2022/05/07 13:39:46;;;;;;;;;20.67;20.67;;;;;;;;5077717;27;45262;-78
2022/05/07 13:42:11;;;;;;;;;26.33;25.33;;;;;;;;5097007;27;45779;-78
2022/05/07 13:44:37;;;;;;;;;30.67;27.33;;;;;;;;5104316;27;45960;-78
2022/05/07 13:47:03;;;;;;;;;29.33;24.00;;;;;;;;5089120;27;45418;-77
2022/05/07 13:49:28;;;;;;;;;28.67;26.00;;;;;;;;5081238;28;45409;-78
2022/05/07 13:51:53;;;;;;;;;30.00;27.33;;;;;;;;5080739;28;46420;-77
2022/05/07 13:54:20;;;;;;;;;22.33;21.67;;;;;;;;5083940;28;46480;-78
2022/05/07 13:56:45;;;;;;;;;25.00;25.00;;;;;;;;5083980;28;45955;-78
2022/05/07 13:59:11;;;;;;;;;26.00;23.67;;;;;;;;5097853;27;45414;-79
2022/05/07 14:01:36;;;;;;;;;25.33;25.00;;;;;;;;5104656;27;47305;-78
2022/05/07 14:04:01;;;;;;;;;36.67;32.67;;;;;;;;5104442;27;46301;-78
2022/05/07 14:06:26;;;;;;;;;25.00;24.67;;;;;;;;5105226;27;45415;-78
2022/05/07 14:08:52;;;;;;;;;21.00;20.67;;;;;;;;5106202;27;45435;-78
2022/05/07 14:11:17;;;;;;;;;20.67;20.67;;;;;;;;5100597;27;45815;-78
2022/05/07 14:13:42;;;;;;;;;27.33;26.33;;;;;;;;5100405;27;46295;-76
2022/05/07 14:16:08;;;;;;;;;25.00;25.00;;;;;;;;5113631;27;45305;-77
2022/05/07 14:18:33;;;;;;;;;21.00;20.33;;;;;;;;5109437;27;45346;-76
2022/05/07 14:20:59;;;;;;;;;20.00;19.00;;;;;;;;5096602;27;45491;-76
2022/05/07 14:23:24;;;;;;;;;24.67;23.67;;;;;;;;5084603;27;47146;-75
2022/05/07 14:25:50;;;;;;;;;22.67;21.33;;;;;;;;5081585;27;45223;-75
2022/05/07 14:28:15;;;;;;;;;21.33;21.33;;;;;;;;5085125;27;45336;-76
2022/05/07 14:30:41;;;;;;;;;20.67;20.67;;;;;;;;5082156;27;46232;-77
2022/05/07 14:33:07;;;;;;;;;22.67;20.67;;;;;;;;5087601;27;46105;-77
2022/05/07 14:35:33;;;;;;;;;17.33;17.00;;;;;;;;5083896;27;46026;-76
2022/05/07 14:37:58;;;;;;;;;12.67;12.67;;;;;;;;5082302;27;45547;-76
2022/05/07 14:40:33;;;;;;;;;10.00;9.33;;;;;;;;5087616;27;47170;-78
2022/05/07 14:43:01;;;;;;;;;11.33;10.33;;;;;;;;5090324;27;46496;-78
2022/05/07 14:45:26;;;;;;;;;8.00;7.67;;;;;;;;5086393;27;45283;-76
2022/05/07 14:47:51;;;;;;;;;10.67;10.67;;;;;;;;5086795;28;45312;-78
2022/05/07 14:50:17;;;;;;;;;6.00;6.00;;;;;;;;5085235;27;45750;-77
2022/05/07 14:52:42;;;;;;;;;5.67;5.67;;;;;;;;5083067;28;48359;-77
2022/05/07 14:55:07;;;;;;;;;25.67;18.67;;;;;;;;5084596;27;45198;-77
2022/05/07 14:57:33;;;;;;;;;5.00;5.00;;;;;;;;5085841;27;45692;-78